AFR06 LMML-LFMN
Flight info
| Callsign | AFR06 |
|---|---|
| Flight time | N/A |
| Altitude | 34000 |
| Route | GZO M622 SOPIR DCT MABOX DCT ADEXI DCT RONAB DCT RUVIP DCT BETOT DCT POKAV DCT KISTO DCT TOBGA/N0450F300 DCT DOBIM DCT AKUTI R16 KERIT |
| Aircraft | A321/M-SDE3FGHIRWY/LB1 |
Departure
| Time | 2026-05-01 15:12 |
|---|---|
| Airport | Malta International Airport (LMML) |
Arrival
| Time | N/A |
|---|---|
| Airport | Nice-Côte d'Azur Airport (LFMN) |
| Time | Latitude | Longitude | Altitude | Speed | Heading |
|---|---|---|---|---|---|
| 2026-05-01 14:58 | 35.84807 | 14.49513 | 253 ft | 0 kts | 0° |
| 2026-05-01 15:07 | 35.84814 | 14.49507 | 253 ft | 2 kts | 313° |
| 2026-05-01 15:08 | 35.84824 | 14.49433 | 253 ft | 15 kts | 291° |
| 2026-05-01 15:08 | 35.84911 | 14.49301 | 254 ft | 21 kts | 307° |
| 2026-05-01 15:08 | 35.84906 | 14.49143 | 255 ft | 16 kts | 259° |
| 2026-05-01 15:08 | 35.84949 | 14.49026 | 255 ft | 15 kts | 304° |
| 2026-05-01 15:09 | 35.84990 | 14.48902 | 256 ft | 17 kts | 286° |
| 2026-05-01 15:09 | 35.85030 | 14.48739 | 258 ft | 22 kts | 287° |
| 2026-05-01 15:09 | 35.85104 | 14.48555 | 260 ft | 27 kts | 307° |
| 2026-05-01 15:09 | 35.85248 | 14.48385 | 261 ft | 30 kts | 315° |
| 2026-05-01 15:10 | 35.85393 | 14.48199 | 261 ft | 31 kts | 315° |
| 2026-05-01 15:10 | 35.85672 | 14.47997 | 263 ft | 14 kts | 301° |
| 2026-05-01 15:10 | 35.85621 | 14.47926 | 264 ft | 13 kts | 166° |
| 2026-05-01 15:11 | 35.85591 | 14.47953 | 263 ft | 3 kts | 135° |
| 2026-05-01 15:11 | 35.85066 | 14.48601 | 259 ft | 113 kts | 134° |
| 2026-05-01 15:11 | 35.84394 | 14.49437 | 257 ft | 159 kts | 132° |
| 2026-05-01 15:12 | 35.83611 | 14.50425 | 743 ft | 161 kts | 131° |
| 2026-05-01 15:12 | 35.81599 | 14.51798 | 1882 ft | 180 kts | 168° |
| 2026-05-01 15:12 | 35.80307 | 14.51678 | 2254 ft | 200 kts | 192° |
| 2026-05-01 15:13 | 35.77283 | 14.47286 | 2786 ft | 257 kts | 239° |
| 2026-05-01 15:14 | 35.75359 | 14.43320 | 3815 ft | 276 kts | 240° |
| 2026-05-01 15:14 | 35.74407 | 14.41266 | 4532 ft | 276 kts | 250° |
| 2026-05-01 15:14 | 35.74265 | 14.36750 | 5896 ft | 268 kts | 294° |
| 2026-05-01 15:15 | 35.76613 | 14.33380 | 7253 ft | 263 kts | 333° |
| 2026-05-01 15:15 | 35.80006 | 14.31731 | 8566 ft | 266 kts | 338° |
| 2026-05-01 15:16 | 35.83478 | 14.30102 | 9898 ft | 268 kts | 336° |
| 2026-05-01 15:16 | 35.87065 | 14.28403 | 10486 ft | 295 kts | 336° |
| 2026-05-01 15:17 | 35.91126 | 14.26479 | 10746 ft | 330 kts | 336° |
| 2026-05-01 15:18 | 35.97760 | 14.23355 | 12102 ft | 345 kts | 336° |
| 2026-05-01 15:18 | 36.00010 | 14.22293 | 12628 ft | 348 kts | 336° |
| 2026-05-01 15:19 | 36.06450 | 14.18134 | 14125 ft | 352 kts | 322° |
| 2026-05-01 15:19 | 36.10426 | 14.14603 | 15040 ft | 356 kts | 322° |
| 2026-05-01 15:19 | 36.12442 | 14.12819 | 15499 ft | 357 kts | 322° |
| 2026-05-01 15:20 | 36.16514 | 14.09220 | 16386 ft | 361 kts | 321° |
| 2026-05-01 15:20 | 36.18562 | 14.07407 | 16813 ft | 363 kts | 321° |
| 2026-05-01 15:20 | 36.20617 | 14.05581 | 17216 ft | 364 kts | 321° |
| 2026-05-01 15:21 | 36.22680 | 14.03743 | 17616 ft | 366 kts | 321° |
| 2026-05-01 15:21 | 36.24752 | 14.01899 | 17998 ft | 368 kts | 321° |
| 2026-05-01 15:21 | 36.26836 | 14.00044 | 18367 ft | 370 kts | 321° |
| 2026-05-01 15:21 | 36.28929 | 13.98183 | 18690 ft | 371 kts | 321° |
| 2026-05-01 15:22 | 36.33147 | 13.94437 | 19314 ft | 374 kts | 320° |
| 2026-05-01 15:22 | 36.35269 | 13.92545 | 19630 ft | 376 kts | 320° |
| 2026-05-01 15:22 | 36.37364 | 13.90672 | 19946 ft | 377 kts | 320° |
| 2026-05-01 15:23 | 36.39497 | 13.88767 | 20265 ft | 379 kts | 320° |
| 2026-05-01 15:23 | 36.41644 | 13.86851 | 20583 ft | 381 kts | 320° |
| 2026-05-01 15:23 | 36.43767 | 13.84952 | 20913 ft | 382 kts | 320° |
| 2026-05-01 15:23 | 36.45928 | 13.83016 | 21246 ft | 384 kts | 320° |
| 2026-05-01 15:24 | 36.47366 | 13.81726 | 21468 ft | 385 kts | 320° |
| 2026-05-01 15:24 | 36.50255 | 13.79136 | 21910 ft | 387 kts | 320° |
| 2026-05-01 15:24 | 36.52443 | 13.77175 | 22248 ft | 389 kts | 320° |
| 2026-05-01 15:24 | 36.53901 | 13.75868 | 22461 ft | 390 kts | 320° |
| 2026-05-01 15:25 | 36.56107 | 13.73893 | 22806 ft | 391 kts | 320° |
| 2026-05-01 15:25 | 36.58323 | 13.71904 | 23141 ft | 393 kts | 320° |
| 2026-05-01 15:25 | 36.60543 | 13.69910 | 23460 ft | 395 kts | 320° |
| 2026-05-01 15:25 | 36.62770 | 13.67904 | 23774 ft | 396 kts | 320° |
| 2026-05-01 15:26 | 36.65006 | 13.65889 | 24028 ft | 398 kts | 320° |
| 2026-05-01 15:26 | 36.67249 | 13.63863 | 24294 ft | 399 kts | 320° |
| 2026-05-01 15:26 | 36.69497 | 13.61829 | 24566 ft | 400 kts | 320° |
| 2026-05-01 15:26 | 36.71750 | 13.59791 | 24845 ft | 401 kts | 320° |
| 2026-05-01 15:27 | 36.74016 | 13.57746 | 25109 ft | 402 kts | 320° |
| 2026-05-01 15:27 | 36.76284 | 13.55705 | 25376 ft | 403 kts | 320° |
| 2026-05-01 15:27 | 36.78562 | 13.53656 | 25643 ft | 404 kts | 320° |
| 2026-05-01 15:28 | 36.83130 | 13.49533 | 26172 ft | 406 kts | 320° |
| 2026-05-01 15:28 | 36.85418 | 13.47457 | 26432 ft | 407 kts | 320° |
| 2026-05-01 15:28 | 36.87714 | 13.45368 | 26688 ft | 408 kts | 320° |
| 2026-05-01 15:29 | 36.92313 | 13.41176 | 27178 ft | 410 kts | 320° |
| 2026-05-01 15:29 | 36.94627 | 13.39072 | 27414 ft | 411 kts | 320° |
| 2026-05-01 15:29 | 36.99243 | 13.34877 | 27856 ft | 413 kts | 319° |
| 2026-05-01 15:30 | 37.03895 | 13.30639 | 28245 ft | 414 kts | 319° |
| 2026-05-01 15:31 | 37.13219 | 13.22128 | 29102 ft | 413 kts | 319° |
| 2026-05-01 15:31 | 37.17845 | 13.17899 | 29616 ft | 410 kts | 319° |
| 2026-05-01 15:32 | 37.22434 | 13.13695 | 30132 ft | 407 kts | 319° |
| 2026-05-01 15:32 | 37.26990 | 13.09510 | 30529 ft | 405 kts | 319° |
| 2026-05-01 15:33 | 37.33805 | 13.03339 | 31070 ft | 406 kts | 324° |
| 2026-05-01 15:34 | 37.41820 | 12.99388 | 31598 ft | 415 kts | 334° |